createdAt,value
2023-04-27T00:01:06.906Z,4.93
2023-04-27T00:03:34.364Z,4.20
2023-04-27T00:06:01.706Z,4.87
2023-04-27T00:08:29.646Z,6.23
2023-04-27T00:10:58.525Z,5.87
2023-04-27T00:13:25.896Z,5.00
2023-04-27T00:15:53.465Z,5.53
2023-04-27T00:18:20.873Z,3.23
2023-04-27T00:20:48.167Z,5.20
2023-04-27T00:23:15.422Z,4.67
2023-04-27T00:25:42.668Z,9.33
2023-04-27T00:28:09.816Z,4.50
2023-04-27T00:30:37.056Z,10.33
2023-04-27T00:33:04.350Z,6.70
2023-04-27T00:35:35.022Z,3.70
2023-04-27T00:38:02.646Z,3.47
2023-04-27T00:40:30.289Z,5.53
2023-04-27T00:42:57.471Z,5.77
2023-04-27T00:45:26.271Z,4.33
2023-04-27T00:47:53.718Z,4.37
2023-04-27T00:50:31.437Z,4.20
2023-04-27T00:52:59.149Z,5.50
2023-04-27T00:55:26.486Z,4.63
2023-04-27T00:57:53.703Z,4.20
2023-04-27T01:00:22.063Z,6.83
2023-04-27T01:02:50.926Z,7.23
2023-04-27T01:05:19.568Z,5.50
2023-04-27T01:07:47.115Z,7.23
2023-04-27T01:10:14.465Z,7.53
2023-04-27T01:12:42.868Z,7.80
2023-04-27T01:15:11.092Z,8.07
2023-04-27T01:17:39.787Z,8.40
2023-04-27T01:20:10.304Z,6.50
2023-04-27T01:22:38.161Z,4.50
2023-04-27T01:25:06.519Z,10.40
2023-04-27T01:27:34.046Z,9.23
2023-04-27T01:30:01.882Z,6.70
2023-04-27T01:32:29.431Z,6.23
2023-04-27T01:34:56.673Z,4.43
2023-04-27T01:37:27.083Z,6.70
2023-04-27T01:39:56.761Z,5.20
2023-04-27T01:42:24.024Z,10.20
2023-04-27T01:44:51.348Z,8.47
2023-04-27T01:47:18.851Z,6.10
2023-04-27T01:49:46.613Z,7.27
2023-04-27T01:52:13.773Z,5.10
2023-04-27T01:54:41.031Z,6.63
2023-04-27T01:57:08.194Z,8.23
2023-04-27T01:59:35.515Z,8.37
2023-04-27T02:02:02.936Z,5.13
2023-04-27T02:04:30.714Z,5.00
2023-04-27T02:06:58.585Z,6.17
2023-04-27T02:09:26.094Z,4.73
2023-04-27T02:11:53.257Z,4.53
2023-04-27T02:14:20.487Z,6.70
2023-04-27T02:16:49.107Z,4.37
2023-04-27T02:19:16.959Z,6.13
2023-04-27T02:21:44.465Z,6.43
2023-04-27T02:24:12.588Z,6.03
2023-04-27T02:26:39.751Z,6.53
2023-04-27T02:29:07.456Z,6.80
2023-04-27T02:31:36.765Z,8.20
2023-04-27T02:34:03.933Z,10.47
2023-04-27T02:36:31.601Z,9.53
2023-04-27T02:38:58.790Z,5.03
2023-04-27T02:41:28.060Z,9.70
2023-04-27T02:43:55.316Z,6.83
2023-04-27T02:46:23.159Z,6.37
2023-04-27T02:48:50.435Z,7.97
2023-04-27T02:51:17.666Z,8.30
2023-04-27T02:53:44.834Z,7.33
2023-04-27T02:56:12.057Z,5.73
2023-04-27T02:58:39.332Z,5.40
2023-04-27T03:01:06.545Z,5.77
2023-04-27T03:03:34.169Z,7.13
2023-04-27T03:06:01.499Z,10.30
2023-04-27T03:08:28.697Z,6.70
2023-04-27T03:10:56.372Z,5.13
2023-04-27T03:13:23.576Z,10.20
2023-04-27T03:15:50.785Z,6.97
2023-04-27T03:18:21.111Z,8.00
2023-04-27T03:20:48.686Z,5.37
2023-04-27T03:23:15.916Z,8.03
2023-04-27T03:25:43.077Z,11.33
2023-04-27T03:28:10.268Z,6.70
2023-04-27T03:30:40.888Z,5.50
2023-04-27T03:33:08.116Z,5.90
2023-04-27T03:35:35.370Z,6.83
2023-04-27T03:38:02.524Z,4.63
2023-04-27T03:40:30.412Z,6.27
2023-04-27T03:42:59.310Z,6.53
2023-04-27T03:45:26.842Z,5.90
2023-04-27T03:47:53.996Z,6.70
2023-04-27T03:50:21.319Z,5.93
2023-04-27T03:52:50.662Z,6.60
2023-04-27T03:55:18.946Z,7.27
2023-04-27T03:57:47.143Z,11.03
2023-04-27T04:00:15.765Z,5.30
2023-04-27T04:02:43.240Z,6.30
2023-04-27T04:05:12.703Z,5.63
2023-04-27T04:07:41.462Z,4.43
2023-04-27T04:10:10.277Z,9.57
2023-04-27T04:12:38.207Z,6.23
2023-04-27T04:15:05.907Z,5.80
2023-04-27T04:17:34.281Z,5.33
2023-04-27T04:20:06.948Z,7.77
2023-04-27T04:22:34.167Z,4.93
2023-04-27T04:25:01.342Z,6.27
2023-04-27T04:27:28.702Z,7.40
2023-04-27T04:29:56.201Z,5.43
2023-04-27T04:32:24.460Z,4.17
2023-04-27T04:34:51.752Z,6.50
2023-04-27T04:37:21.724Z,6.47
2023-04-27T04:39:48.916Z,8.70
2023-04-27T04:42:16.380Z,5.63
2023-04-27T04:44:44.744Z,6.00
2023-04-27T04:47:13.090Z,5.00
2023-04-27T04:49:40.594Z,9.33
2023-04-27T04:52:08.363Z,7.90
2023-04-27T04:54:35.632Z,4.93
2023-04-27T04:57:03.383Z,7.20
2023-04-27T04:59:34.118Z,4.37
2023-04-27T05:02:01.919Z,4.77
2023-04-27T05:04:29.315Z,6.90
2023-04-27T05:06:56.585Z,5.73
2023-04-27T05:09:24.543Z,5.93
2023-04-27T05:11:51.902Z,6.97
2023-04-27T05:14:19.068Z,5.43
2023-04-27T05:16:48.868Z,4.83
2023-04-27T05:19:20.613Z,5.77
2023-04-27T05:21:48.218Z,5.13
2023-04-27T05:24:15.614Z,6.33
2023-04-27T05:26:43.597Z,4.93
2023-04-27T05:29:11.919Z,4.87
2023-04-27T05:31:39.770Z,5.80
2023-04-27T05:34:09.762Z,6.63
2023-04-27T05:36:37.666Z,6.23
2023-04-27T05:39:05.015Z,4.67
2023-04-27T05:41:32.300Z,5.13
2023-04-27T05:43:59.493Z,6.67
2023-04-27T05:46:26.732Z,7.30
2023-04-27T05:48:53.988Z,5.27
2023-04-27T05:51:21.282Z,4.00
2023-04-27T05:53:49.048Z,4.20
2023-04-27T05:56:16.874Z,3.90
2023-04-27T05:58:44.364Z,6.87
2023-04-27T06:01:12.339Z,3.90
2023-04-27T06:03:39.692Z,4.30
2023-04-27T06:06:07.757Z,4.63
2023-04-27T06:08:37.345Z,5.70
2023-04-27T06:11:04.763Z,5.13
2023-04-27T06:13:33.222Z,3.23
2023-04-27T06:16:01.293Z,5.07
2023-04-27T06:18:28.531Z,4.60
2023-04-27T06:21:02.240Z,2.70
2023-04-27T06:23:29.705Z,3.63
2023-04-27T06:25:58.582Z,3.00
2023-04-27T06:28:26.781Z,2.87
2023-04-27T06:30:54.678Z,3.90
2023-04-27T06:33:22.076Z,3.43
2023-04-27T06:35:49.241Z,3.73
2023-04-27T06:38:16.756Z,3.20
2023-04-27T06:40:45.632Z,2.57
2023-04-27T06:43:12.837Z,2.87
2023-04-27T06:45:40.970Z,3.70
2023-04-27T06:48:08.259Z,3.60
2023-04-27T06:50:35.673Z,3.17
2023-04-27T06:53:02.829Z,2.37
2023-04-27T06:55:29.999Z,2.63
2023-04-27T06:57:57.321Z,2.57
2023-04-27T07:00:24.810Z,3.53
2023-04-27T07:02:52.329Z,2.70
2023-04-27T07:05:19.811Z,3.33
2023-04-27T07:07:47.196Z,2.23
2023-04-27T07:10:14.375Z,1.80
2023-04-27T07:12:42.761Z,2.30
2023-04-27T07:15:10.526Z,2.53
2023-04-27T07:17:37.807Z,3.37
2023-04-27T07:20:07.104Z,4.30
2023-04-27T07:22:34.396Z,2.40
2023-04-27T07:25:02.090Z,4.27
2023-04-27T07:27:29.256Z,5.70
2023-04-27T07:29:57.124Z,2.40
2023-04-27T07:32:24.530Z,4.00
2023-04-27T07:34:54.328Z,2.37
2023-04-27T07:37:25.190Z,3.00
2023-04-27T07:39:53.156Z,4.40
2023-04-27T07:42:24.883Z,5.17
2023-04-27T07:44:52.397Z,4.23
2023-04-27T07:47:19.724Z,3.23
2023-04-27T07:49:47.140Z,4.00
2023-04-27T07:52:18.383Z,2.90
2023-04-27T07:54:58.158Z,3.00
2023-04-27T07:57:25.405Z,2.33
2023-04-27T08:00:18.450Z,4.77
2023-04-27T08:02:45.933Z,4.03
2023-04-27T08:05:14.429Z,3.37
2023-04-27T08:07:44.951Z,2.70
2023-04-27T08:10:13.247Z,4.10
2023-04-27T08:12:41.283Z,2.47
2023-04-27T08:15:09.192Z,2.33
2023-04-27T08:17:37.129Z,4.00
2023-04-27T08:20:06.788Z,2.80
2023-04-27T08:22:41.264Z,7.20
2023-04-27T08:25:09.543Z,2.50
2023-04-27T08:27:38.230Z,2.13
2023-04-27T08:30:06.729Z,3.00
2023-04-27T08:32:34.228Z,2.93
2023-04-27T08:35:01.691Z,2.37
2023-04-27T08:37:29.238Z,2.70
2023-04-27T08:39:56.988Z,1.73
2023-04-27T08:42:24.417Z,2.90
2023-04-27T08:44:51.706Z,1.60
2023-04-27T08:47:23.544Z,3.40
2023-04-27T08:49:58.873Z,3.67
2023-04-27T08:52:26.610Z,2.47
2023-04-27T08:54:54.074Z,2.17
2023-04-27T08:57:21.314Z,3.20
2023-04-27T08:59:59.740Z,3.93
2023-04-27T09:02:29.438Z,2.90
2023-04-27T09:04:56.874Z,3.00
2023-04-27T09:07:28.670Z,2.17
2023-04-27T09:10:03.953Z,1.80
2023-04-27T09:12:31.244Z,2.30
2023-04-27T09:15:06.730Z,2.47
2023-04-27T09:17:34.182Z,4.20
2023-04-27T09:20:10.639Z,2.90
2023-04-27T09:22:48.029Z,1.57
2023-04-27T09:25:26.325Z,3.93
2023-04-27T09:27:54.032Z,2.63
2023-04-27T09:30:22.569Z,4.40
2023-04-27T09:33:02.300Z,2.30
2023-04-27T09:35:32.047Z,3.20
2023-04-27T09:38:00.700Z,2.63
2023-04-27T09:40:31.138Z,2.53
2023-04-27T09:43:03.148Z,2.30
2023-04-27T09:45:31.214Z,3.23
2023-04-27T09:47:58.573Z,3.13
2023-04-27T09:50:25.907Z,3.73
2023-04-27T09:52:53.949Z,5.50
2023-04-27T09:55:44.077Z,2.87
2023-04-27T09:58:40.116Z,2.63
2023-04-27T10:01:32.038Z,2.53
2023-04-27T10:04:12.210Z,1.80
2023-04-27T10:06:59.592Z,2.77
2023-04-27T10:09:34.060Z,2.37
2023-04-27T10:12:15.907Z,4.60
2023-04-27T10:14:52.079Z,1.90
2023-04-27T10:17:25.286Z,3.20
2023-04-27T10:19:58.361Z,3.43
2023-04-27T10:22:41.748Z,2.47
2023-04-27T10:25:19.136Z,3.40
2023-04-27T10:27:52.410Z,2.17
2023-04-27T10:30:22.106Z,4.40
2023-04-27T10:32:57.130Z,3.13
2023-04-27T10:35:38.783Z,2.83
2023-04-27T10:38:14.669Z,4.70
2023-04-27T10:40:44.551Z,2.40
2023-04-27T10:43:14.196Z,2.67
2023-04-27T10:45:42.561Z,4.23
2023-04-27T10:48:14.279Z,2.43
2023-04-27T10:50:42.554Z,3.70
2023-04-27T10:53:09.945Z,4.00
2023-04-27T10:55:37.323Z,5.20
2023-04-27T10:58:04.656Z,2.63
2023-04-27T11:00:37.265Z,2.30
2023-04-27T11:03:15.945Z,3.10
2023-04-27T11:05:45.179Z,2.80
2023-04-27T11:08:17.445Z,4.33
2023-04-27T11:10:47.287Z,3.00
2023-04-27T11:13:17.167Z,2.43
2023-04-27T11:15:50.820Z,2.73
2023-04-27T11:18:19.545Z,3.40
2023-04-27T11:20:49.852Z,2.33
2023-04-27T11:23:36.871Z,3.10
2023-04-27T11:26:17.451Z,2.77
2023-04-27T11:28:57.614Z,4.20
2023-04-27T11:31:26.132Z,2.83
2023-04-27T11:33:55.886Z,2.60
2023-04-27T11:36:24.982Z,3.33
2023-04-27T11:38:57.700Z,3.37
2023-04-27T11:41:37.385Z,3.37
2023-04-27T11:44:09.080Z,3.23
2023-04-27T11:46:36.920Z,5.00
2023-04-27T11:49:05.675Z,4.00
2023-04-27T11:51:33.442Z,1.97
2023-04-27T11:54:07.759Z,2.33
2023-04-27T11:56:37.895Z,4.13
2023-04-27T11:59:05.520Z,2.87
2023-04-27T12:01:38.153Z,3.73
2023-04-27T12:04:06.242Z,3.20
2023-04-27T12:06:33.920Z,3.10
2023-04-27T12:09:01.313Z,2.93
2023-04-27T12:11:28.591Z,2.73
2023-04-27T12:13:56.753Z,3.67
2023-04-27T12:16:24.008Z,4.00
2023-04-27T12:18:51.262Z,3.57
2023-04-27T12:21:18.591Z,3.30
2023-04-27T12:23:45.997Z,2.93
2023-04-27T12:26:15.150Z,3.00
2023-04-27T12:28:43.054Z,2.63
2023-04-27T12:31:16.300Z,2.50
2023-04-27T12:33:49.139Z,3.10
2023-04-27T12:36:17.287Z,2.50
2023-04-27T12:38:44.563Z,2.37
2023-04-27T12:41:11.766Z,3.97
2023-04-27T12:43:41.008Z,3.50
2023-04-27T12:46:08.780Z,4.87
2023-04-27T12:48:36.125Z,4.30
2023-04-27T12:51:03.682Z,2.93
2023-04-27T12:53:32.131Z,2.70
2023-04-27T12:56:01.860Z,2.67
2023-04-27T12:58:29.754Z,2.07
2023-04-27T13:01:00.754Z,3.83
2023-04-27T13:03:28.166Z,2.80
2023-04-27T13:05:55.779Z,3.23
2023-04-27T13:08:22.981Z,3.70
2023-04-27T13:10:50.333Z,2.90
2023-04-27T13:13:17.624Z,3.30
2023-04-27T13:15:44.883Z,2.70
2023-04-27T13:18:12.176Z,2.70
2023-04-27T13:20:39.442Z,3.17
2023-04-27T13:23:07.148Z,2.57
2023-04-27T13:25:34.296Z,2.83
2023-04-27T13:28:01.608Z,2.40
2023-04-27T13:30:30.436Z,3.50
2023-04-27T13:33:07.251Z,4.27
2023-04-27T13:35:45.028Z,3.17
2023-04-27T13:38:12.197Z,2.70
2023-04-27T13:40:39.816Z,2.60
2023-04-27T13:43:06.987Z,3.00
2023-04-27T13:45:35.017Z,2.67
2023-04-27T13:48:03.406Z,2.60
2023-04-27T13:50:30.739Z,8.03
2023-04-27T13:52:57.940Z,2.73
2023-04-27T13:55:25.841Z,4.47
2023-04-27T13:57:53.073Z,2.20
2023-04-27T14:00:20.508Z,2.40
2023-04-27T14:02:47.832Z,2.30
2023-04-27T14:05:15.699Z,2.33
2023-04-27T14:07:42.861Z,2.37
2023-04-27T14:10:10.363Z,3.03
2023-04-27T14:12:37.703Z,3.10
2023-04-27T14:15:05.239Z,3.40
2023-04-27T14:17:32.912Z,4.07
2023-04-27T14:20:00.135Z,3.47
2023-04-27T14:22:27.648Z,3.20
2023-04-27T14:24:56.342Z,2.90
2023-04-27T14:27:24.047Z,3.23
2023-04-27T14:29:51.589Z,3.33
2023-04-27T14:32:19.351Z,4.43
2023-04-27T14:34:46.708Z,4.63
2023-04-27T14:37:14.119Z,3.00
2023-04-27T14:39:42.896Z,2.73
2023-04-27T14:42:12.281Z,3.23
2023-04-27T14:44:39.688Z,3.50
2023-04-27T14:47:06.960Z,4.17
2023-04-27T14:49:34.178Z,4.83
2023-04-27T14:52:04.444Z,3.10
2023-04-27T14:54:32.257Z,5.30
2023-04-27T14:57:00.995Z,3.77
2023-04-27T14:59:28.830Z,3.83
2023-04-27T15:01:56.063Z,3.43
2023-04-27T15:04:23.875Z,4.73
2023-04-27T15:06:52.121Z,3.93
2023-04-27T15:09:19.476Z,5.43
2023-04-27T15:11:47.268Z,3.83
2023-04-27T15:14:14.436Z,4.03
2023-04-27T15:16:42.375Z,3.37
2023-04-27T15:19:09.983Z,4.73
2023-04-27T15:21:37.717Z,3.37
2023-04-27T15:24:05.131Z,3.50
2023-04-27T15:26:32.471Z,4.83
2023-04-27T15:28:59.684Z,4.50
2023-04-27T15:31:27.510Z,4.07
2023-04-27T15:33:54.784Z,3.87
2023-04-27T15:36:22.950Z,5.47
2023-04-27T15:38:51.771Z,5.77
2023-04-27T15:41:19.004Z,4.67
2023-04-27T15:43:47.395Z,3.63
2023-04-27T15:46:15.482Z,4.00
2023-04-27T15:48:42.692Z,4.83
2023-04-27T15:51:10.622Z,3.93
2023-04-27T15:53:37.884Z,5.60
2023-04-27T15:56:05.330Z,5.10
2023-04-27T15:58:33.075Z,4.37
2023-04-27T16:01:00.485Z,4.30
2023-04-27T16:03:27.827Z,4.57
2023-04-27T16:05:55.408Z,4.03
2023-04-27T16:08:22.622Z,7.13
2023-04-27T16:10:50.454Z,4.73
2023-04-27T16:13:17.629Z,4.90
2023-04-27T16:15:44.793Z,4.03
2023-04-27T16:18:11.981Z,8.67
2023-04-27T16:20:39.156Z,5.13
2023-04-27T16:23:06.480Z,5.07
2023-04-27T16:25:33.700Z,4.77
2023-04-27T16:28:01.175Z,5.73
2023-04-27T16:30:28.384Z,4.60
2023-04-27T16:32:56.145Z,5.43
2023-04-27T16:35:23.365Z,4.67
2023-04-27T16:37:50.589Z,4.17
2023-04-27T16:40:17.858Z,6.07
2023-04-27T16:42:45.358Z,4.70
2023-04-27T16:45:13.145Z,5.07
2023-04-27T16:47:41.716Z,4.77
2023-04-27T16:50:09.467Z,6.20
2023-04-27T16:52:37.385Z,7.30
2023-04-27T16:55:06.007Z,5.90
2023-04-27T16:57:33.259Z,4.33
2023-04-27T17:00:01.660Z,5.33
2023-04-27T17:02:29.391Z,5.67
2023-04-27T17:04:56.798Z,6.00
2023-04-27T17:07:25.358Z,4.80
2023-04-27T17:09:53.002Z,5.63
2023-04-27T17:12:20.257Z,5.60
2023-04-27T17:14:47.910Z,4.97
2023-04-27T17:17:15.087Z,4.80
2023-04-27T17:19:42.565Z,4.23
2023-04-27T17:22:13.365Z,5.93
2023-04-27T17:24:40.723Z,4.80
2023-04-27T17:27:07.885Z,4.53
2023-04-27T17:29:35.720Z,5.13
2023-04-27T17:32:04.467Z,4.90
2023-04-27T17:34:32.026Z,4.90
2023-04-27T17:36:59.591Z,9.57
2023-04-27T17:39:26.935Z,6.40
2023-04-27T17:41:54.746Z,4.83
2023-04-27T17:44:22.380Z,5.67
2023-04-27T17:46:51.439Z,4.63
2023-04-27T17:49:19.090Z,5.20
2023-04-27T17:51:46.922Z,8.87
2023-04-27T17:54:14.215Z,4.23
2023-04-27T17:56:42.645Z,6.10
2023-04-27T17:59:10.115Z,6.37
2023-04-27T18:01:38.183Z,5.17
2023-04-27T18:04:07.070Z,5.47
2023-04-27T18:06:34.530Z,4.90
2023-04-27T18:09:02.609Z,6.37
2023-04-27T18:11:30.105Z,6.53
2023-04-27T18:14:00.315Z,4.93
2023-04-27T18:16:27.852Z,6.03
2023-04-27T18:18:55.232Z,6.30
2023-04-27T18:21:22.543Z,6.37
2023-04-27T18:23:49.809Z,5.37
2023-04-27T18:26:17.221Z,5.30
2023-04-27T18:28:44.718Z,7.00
2023-04-27T18:31:18.710Z,6.73
2023-04-27T18:33:46.610Z,4.70
2023-04-27T18:36:14.012Z,6.63
2023-04-27T18:38:41.332Z,6.17
2023-04-27T18:41:09.003Z,5.20
2023-04-27T18:43:37.101Z,5.23
2023-04-27T18:46:04.760Z,6.30
2023-04-27T18:48:32.478Z,5.60
2023-04-27T18:50:59.800Z,6.97
2023-04-27T18:53:27.802Z,5.83
2023-04-27T18:55:55.591Z,5.80
2023-04-27T18:58:23.509Z,6.57
2023-04-27T19:00:50.965Z,8.00
2023-04-27T19:03:18.605Z,6.70
2023-04-27T19:05:46.856Z,5.57
2023-04-27T19:08:14.204Z,5.43
2023-04-27T19:10:41.630Z,6.80
2023-04-27T19:13:08.966Z,8.10
2023-04-27T19:15:36.449Z,6.20
2023-04-27T19:18:10.585Z,7.90
2023-04-27T19:20:39.785Z,6.33
2023-04-27T19:23:09.192Z,5.70
2023-04-27T19:25:36.822Z,6.17
2023-04-27T19:28:05.710Z,6.77
2023-04-27T19:30:33.241Z,8.03
2023-04-27T19:33:00.741Z,6.70
2023-04-27T19:35:28.514Z,6.60
2023-04-27T19:37:56.290Z,5.17
2023-04-27T19:40:23.661Z,6.27
2023-04-27T19:42:51.677Z,8.97
2023-04-27T19:45:20.589Z,6.47
2023-04-27T19:47:51.457Z,7.90
2023-04-27T19:50:18.801Z,5.57
2023-04-27T19:52:46.102Z,6.63
2023-04-27T19:55:13.719Z,7.97
2023-04-27T19:57:41.166Z,6.20
2023-04-27T20:00:12.519Z,7.53
2023-04-27T20:02:42.991Z,8.47
2023-04-27T20:05:11.290Z,8.93
2023-04-27T20:07:38.895Z,6.70
2023-04-27T20:10:07.200Z,8.63
2023-04-27T20:15:06.906Z,6.50
2023-04-27T20:17:34.898Z,8.37
2023-04-27T20:20:02.346Z,6.97
2023-04-27T20:22:29.661Z,8.47
2023-04-27T20:24:59.038Z,7.90
2023-04-27T20:27:26.476Z,7.53
2023-04-27T20:29:53.808Z,6.47
2023-04-27T20:32:21.293Z,9.07
2023-04-27T20:34:48.645Z,8.60
2023-04-27T20:37:16.952Z,8.77
2023-04-27T20:39:44.616Z,9.60
2023-04-27T20:42:12.566Z,9.03
2023-04-27T20:44:39.904Z,7.67
2023-04-27T20:47:07.171Z,9.80
2023-04-27T20:49:35.746Z,10.53
2023-04-27T20:52:03.538Z,7.73
2023-04-27T20:54:32.636Z,7.90
2023-04-27T20:57:03.661Z,10.60
2023-04-27T20:59:30.908Z,7.67
2023-04-27T21:01:58.152Z,10.93
2023-04-27T21:04:25.478Z,8.70
2023-04-27T21:06:53.413Z,8.80
2023-04-27T21:09:20.920Z,7.97
2023-04-27T21:11:48.158Z,8.60
2023-04-27T21:14:15.772Z,9.80
2023-04-27T21:16:43.163Z,10.00
2023-04-27T21:19:14.549Z,8.17
2023-04-27T21:21:41.915Z,10.33
2023-04-27T21:24:09.178Z,9.00
2023-04-27T21:26:36.992Z,10.97
2023-04-27T21:29:05.989Z,10.83
2023-04-27T21:31:34.059Z,9.50
2023-04-27T21:34:02.760Z,16.13
2023-04-27T21:36:30.206Z,11.80
2023-04-27T21:38:57.357Z,9.10
2023-04-27T21:41:25.738Z,12.07
2023-04-27T21:43:52.932Z,10.23
2023-04-27T21:46:20.395Z,8.80
2023-04-27T21:48:48.143Z,8.40
2023-04-27T21:51:15.670Z,10.10
2023-04-27T21:53:42.915Z,9.23
2023-04-27T21:56:10.077Z,8.60
2023-04-27T21:58:37.244Z,10.10
2023-04-27T22:01:04.526Z,9.50
2023-04-27T22:03:32.531Z,7.63
2023-04-27T22:06:00.358Z,9.37
2023-04-27T22:08:27.555Z,7.57
2023-04-27T22:10:55.998Z,8.50
2023-04-27T22:13:23.236Z,10.53
2023-04-27T22:15:51.124Z,9.50
2023-04-27T22:18:18.553Z,9.03
2023-04-27T22:20:46.069Z,12.70
2023-04-27T22:23:13.696Z,9.73
2023-04-27T22:25:43.069Z,10.20
2023-04-27T22:28:10.735Z,9.80
2023-04-27T22:30:39.839Z,10.23
2023-04-27T22:33:07.987Z,10.03
2023-04-27T22:35:36.291Z,10.27
2023-04-27T22:38:03.499Z,10.50
2023-04-27T22:40:31.876Z,10.20
2023-04-27T22:42:59.062Z,10.93
2023-04-27T22:45:26.469Z,9.33
2023-04-27T22:47:53.693Z,9.47
2023-04-27T22:50:20.935Z,14.17
2023-04-27T22:52:48.245Z,11.70
2023-04-27T22:55:15.950Z,11.27
2023-04-27T22:57:43.964Z,12.23
2023-04-27T23:00:12.030Z,10.77
2023-04-27T23:02:40.781Z,10.30
2023-04-27T23:05:08.901Z,11.23
2023-04-27T23:07:37.063Z,11.43
2023-04-27T23:10:05.669Z,9.30
2023-04-27T23:12:33.292Z,13.70
2023-04-27T23:15:00.916Z,11.67
2023-04-27T23:17:31.547Z,11.60
2023-04-27T23:20:00.180Z,11.70
2023-04-27T23:22:28.695Z,16.00
2023-04-27T23:24:56.110Z,11.23
2023-04-27T23:27:24.638Z,13.17
2023-04-27T23:29:52.411Z,12.77
2023-04-27T23:32:19.770Z,10.87
2023-04-27T23:34:47.401Z,10.10
2023-04-27T23:37:15.109Z,13.60
2023-04-27T23:39:42.270Z,11.80
2023-04-27T23:42:09.475Z,12.70
2023-04-27T23:44:37.209Z,12.03
2023-04-27T23:47:05.251Z,15.80
2023-04-27T23:49:32.397Z,13.20
2023-04-27T23:51:59.540Z,20.80
2023-04-27T23:54:31.844Z,12.93
2023-04-27T23:56:59.015Z,16.30
2023-04-27T23:59:26.563Z,13.57
